createdAt,value
2022-10-05T00:02:21.660Z,13.00
2022-10-05T00:05:30.539Z,11.75
2022-10-05T00:08:36.580Z,12.40
2022-10-05T00:11:40.211Z,13.00
2022-10-05T00:14:44.494Z,11.20
2022-10-05T00:17:47.886Z,13.00
2022-10-05T00:20:51.476Z,12.50
2022-10-05T00:23:58.809Z,11.80
2022-10-05T00:27:02.849Z,14.00
2022-10-05T00:30:15.201Z,13.00
2022-10-05T00:33:18.892Z,14.00
2022-10-05T00:36:22.583Z,14.00
2022-10-05T00:39:27.470Z,12.40
2022-10-05T00:42:42.965Z,14.00
2022-10-05T00:45:52.066Z,12.00
2022-10-05T00:49:05.020Z,12.40
2022-10-05T00:52:22.259Z,14.00
2022-10-05T00:55:38.462Z,14.00
2022-10-05T00:58:55.477Z,13.75
2022-10-05T01:02:04.041Z,12.00
2022-10-05T01:05:14.070Z,13.50
2022-10-05T01:08:31.602Z,14.00
2022-10-05T01:11:44.322Z,11.00
2022-10-05T01:14:56.694Z,12.40
2022-10-05T01:18:07.182Z,10.00
2022-10-05T01:21:19.063Z,11.00
2022-10-05T01:24:41.608Z,11.00
2022-10-05T01:27:55.772Z,8.00
2022-10-05T01:31:10.474Z,9.00
2022-10-05T01:34:22.667Z,7.40
2022-10-05T01:37:31.748Z,10.00
2022-10-05T01:40:41.116Z,7.75
2022-10-05T01:43:50.158Z,8.00
2022-10-05T01:46:59.780Z,8.00
2022-10-05T01:50:09.608Z,9.20
2022-10-05T01:53:26.465Z,9.00
2022-10-05T01:56:40.872Z,9.00
2022-10-05T02:00:00.244Z,8.00
2022-10-05T02:03:09.498Z,7.00
2022-10-05T02:06:18.390Z,10.60
2022-10-05T02:09:26.692Z,7.00
2022-10-05T02:12:36.207Z,8.60
2022-10-05T02:15:47.175Z,7.60
2022-10-05T02:18:53.961Z,9.00
2022-10-05T02:22:06.191Z,8.00
2022-10-05T02:25:15.085Z,6.40
2022-10-05T02:28:23.814Z,9.00
2022-10-05T02:31:33.757Z,7.00
2022-10-05T02:34:39.675Z,8.00
2022-10-05T02:38:07.890Z,7.00
2022-10-05T02:41:21.670Z,8.00
2022-10-05T02:44:32.047Z,7.60
2022-10-05T02:47:45.535Z,9.00
2022-10-05T02:50:55.520Z,7.00
2022-10-05T02:54:12.434Z,10.00
2022-10-05T02:57:25.744Z,7.00
2022-10-05T03:00:36.172Z,7.50
2022-10-05T03:03:45.997Z,6.60
2022-10-05T03:06:57.025Z,9.00
2022-10-05T03:10:10.568Z,8.00
2022-10-05T03:13:26.748Z,9.00
2022-10-05T03:16:40.470Z,10.50
2022-10-05T03:20:04.190Z,8.60
2022-10-05T03:23:16.258Z,8.60
2022-10-05T03:26:34.087Z,8.50
2022-10-05T03:29:45.737Z,7.00
2022-10-05T03:33:00.754Z,11.00
2022-10-05T03:36:17.928Z,9.00
2022-10-05T03:39:28.265Z,10.20
2022-10-05T03:42:40.566Z,8.00
2022-10-05T03:45:56.317Z,10.00
2022-10-05T03:49:07.895Z,9.75
2022-10-05T03:52:17.616Z,8.60
2022-10-05T03:55:30.409Z,10.40
2022-10-05T03:58:41.884Z,11.00
2022-10-05T04:01:51.132Z,10.00
2022-10-05T04:05:03.517Z,12.40
2022-10-05T04:08:13.055Z,8.00
2022-10-05T04:11:22.501Z,9.00
2022-10-05T04:14:33.298Z,10.00
2022-10-05T04:17:43.612Z,11.00
2022-10-05T04:20:52.227Z,9.00
2022-10-05T04:24:02.231Z,10.00
2022-10-05T04:27:12.539Z,11.00
2022-10-05T04:30:18.760Z,10.00
2022-10-05T04:33:25.032Z,10.00
2022-10-05T04:36:34.978Z,11.00
2022-10-05T04:39:48.447Z,12.50
2022-10-05T04:43:04.087Z,8.40
2022-10-05T04:46:25.358Z,10.00
2022-10-05T04:50:00.109Z,8.00
2022-10-05T04:53:14.372Z,9.00
2022-10-05T04:56:25.431Z,12.00
2022-10-05T04:59:45.294Z,9.00
2022-10-05T05:03:07.649Z,11.00
2022-10-05T05:06:25.755Z,12.00
2022-10-05T05:09:52.021Z,8.00
2022-10-05T05:13:10.806Z,11.00
2022-10-05T05:16:27.378Z,10.00
2022-10-05T05:19:43.147Z,8.60
2022-10-05T05:22:52.383Z,8.00
2022-10-05T05:26:09.220Z,7.00
2022-10-05T05:29:22.948Z,6.50
2022-10-05T05:32:38.677Z,6.40
2022-10-05T05:36:23.195Z,8.00
2022-10-05T05:39:35.012Z,7.00
2022-10-05T05:42:49.683Z,8.00
2022-10-05T05:46:00.627Z,7.00
2022-10-05T05:49:09.686Z,8.40
2022-10-05T05:52:20.431Z,9.00
2022-10-05T05:55:30.549Z,8.25
2022-10-05T05:58:45.860Z,10.00
2022-10-05T06:01:57.346Z,7.40
2022-10-05T06:05:11.440Z,9.00
2022-10-05T06:08:20.920Z,7.50
2022-10-05T06:11:32.099Z,10.00
2022-10-05T06:14:41.839Z,8.00
2022-10-05T06:17:52.880Z,6.50
2022-10-05T06:21:01.059Z,6.00
2022-10-05T06:24:14.095Z,5.00
2022-10-05T06:27:27.360Z,5.20
2022-10-05T06:30:45.855Z,6.00
2022-10-05T06:33:53.027Z,7.00
2022-10-05T06:37:06.969Z,7.00
2022-10-05T06:40:22.272Z,8.33
2022-10-05T06:43:52.288Z,9.00
2022-10-05T06:47:24.454Z,9.00
2022-10-05T06:50:54.170Z,8.80
2022-10-05T06:54:43.974Z,8.00
2022-10-05T06:58:03.811Z,8.40
2022-10-05T07:01:16.143Z,9.00
2022-10-05T07:04:37.122Z,7.00
2022-10-05T07:07:52.998Z,8.00
2022-10-05T07:11:16.786Z,6.60
2022-10-05T07:14:36.577Z,8.00
2022-10-05T07:17:51.311Z,6.00
2022-10-05T07:21:03.019Z,7.00
2022-10-05T07:24:25.148Z,6.00
2022-10-05T07:27:33.655Z,5.00
2022-10-05T07:30:47.217Z,4.50
2022-10-05T07:34:00.892Z,5.00
2022-10-05T07:37:26.333Z,5.00
2022-10-05T07:40:37.894Z,5.00
2022-10-05T07:44:02.110Z,5.00
2022-10-05T07:47:13.328Z,4.00
2022-10-05T07:50:23.884Z,4.00
2022-10-05T07:53:34.090Z,3.60
2022-10-05T07:56:44.384Z,4.00
2022-10-05T07:59:58.059Z,4.00
2022-10-05T08:03:11.372Z,5.00
2022-10-05T08:06:28.957Z,4.60
2022-10-05T08:09:40.210Z,4.40
2022-10-05T08:12:58.288Z,3.80
2022-10-05T08:16:05.934Z,4.00
2022-10-05T08:19:18.885Z,3.00
2022-10-05T08:22:26.713Z,4.00
2022-10-05T08:25:42.326Z,4.00
2022-10-05T08:28:55.090Z,4.60
2022-10-05T08:32:03.687Z,4.00
2022-10-05T08:35:24.328Z,3.00
2022-10-05T08:38:33.784Z,3.00
2022-10-05T08:42:00.882Z,3.00
2022-10-05T08:45:47.463Z,3.00
2022-10-05T08:49:10.996Z,3.00
2022-10-05T08:52:34.681Z,5.00
2022-10-05T08:55:44.798Z,4.00
2022-10-05T08:59:16.169Z,4.00
2022-10-05T09:02:33.112Z,4.00
2022-10-05T09:06:00.972Z,5.00
2022-10-05T09:09:36.799Z,5.00
2022-10-05T09:13:18.533Z,3.60
2022-10-05T09:17:03.463Z,4.00
2022-10-05T09:20:23.935Z,3.80
2022-10-05T09:23:40.319Z,3.00
2022-10-05T09:26:45.983Z,4.00
2022-10-05T09:30:22.376Z,3.00
2022-10-05T09:33:57.262Z,3.20
2022-10-05T09:37:47.983Z,3.00
2022-10-05T09:41:20.922Z,3.00
2022-10-05T09:44:51.079Z,4.00
2022-10-05T09:48:26.061Z,5.00
2022-10-05T09:52:06.626Z,3.00
2022-10-05T09:55:43.289Z,2.20
2022-10-05T09:59:24.054Z,4.00
2022-10-05T10:02:46.288Z,5.33
2022-10-05T10:06:19.174Z,5.00
2022-10-05T10:09:36.520Z,4.00
2022-10-05T10:12:58.070Z,5.00
2022-10-05T10:16:24.619Z,3.80
2022-10-05T10:19:52.710Z,4.60
2022-10-05T10:23:17.052Z,4.00
2022-10-05T10:26:52.635Z,5.00
2022-10-05T10:30:36.536Z,4.67
2022-10-05T10:34:20.053Z,4.00
2022-10-05T10:37:41.001Z,4.80
2022-10-05T10:41:00.093Z,5.00
2022-10-05T10:44:37.844Z,3.00
2022-10-05T10:47:52.931Z,4.80
2022-10-05T10:51:15.498Z,5.00
2022-10-05T10:54:41.144Z,5.00
2022-10-05T10:58:03.047Z,5.00
2022-10-05T11:01:19.788Z,4.00
2022-10-05T11:04:46.368Z,5.00
2022-10-05T11:08:09.491Z,4.40
2022-10-05T11:11:51.414Z,4.00
2022-10-05T11:15:25.215Z,4.00
2022-10-05T11:18:46.979Z,4.00
2022-10-05T11:22:04.994Z,4.00
2022-10-05T11:25:44.548Z,3.25
2022-10-05T11:29:09.029Z,4.00
2022-10-05T11:32:48.129Z,4.00
2022-10-05T11:36:19.403Z,4.00
2022-10-05T11:39:38.837Z,4.00
2022-10-05T11:43:17.831Z,4.00
2022-10-05T11:46:28.940Z,4.00
2022-10-05T11:49:42.808Z,5.00
2022-10-05T11:52:54.626Z,4.50
2022-10-05T11:56:08.365Z,5.00
2022-10-05T11:59:21.021Z,5.00
2022-10-05T12:02:48.173Z,5.75
2022-10-05T12:06:10.054Z,4.00
2022-10-05T12:09:27.324Z,4.00
2022-10-05T12:12:37.896Z,4.80
2022-10-05T12:15:49.355Z,5.00
2022-10-05T12:19:01.989Z,5.00
2022-10-05T12:22:17.139Z,5.00
2022-10-05T12:25:27.217Z,5.00
2022-10-05T12:28:36.413Z,5.00
2022-10-05T12:31:49.676Z,4.20
2022-10-05T12:35:03.389Z,5.60
2022-10-05T12:38:17.793Z,4.00
2022-10-05T12:41:26.104Z,4.00
2022-10-05T12:44:46.970Z,6.00
2022-10-05T12:48:07.672Z,4.00
2022-10-05T12:51:18.286Z,5.00
2022-10-05T12:54:32.511Z,5.00
2022-10-05T12:57:44.929Z,5.00
2022-10-05T13:00:57.511Z,4.00
2022-10-05T13:04:12.271Z,5.00
2022-10-05T13:07:40.513Z,4.50
2022-10-05T13:10:48.185Z,4.00
2022-10-05T13:13:59.140Z,5.00
2022-10-05T13:17:08.834Z,4.00
2022-10-05T13:20:21.972Z,4.60
2022-10-05T13:23:37.782Z,4.00
2022-10-05T13:26:45.417Z,4.00
2022-10-05T13:29:56.466Z,4.00
2022-10-05T13:33:08.066Z,3.00
2022-10-05T13:36:17.694Z,4.00
2022-10-05T13:42:55.864Z,4.00
2022-10-05T13:46:08.071Z,5.00
2022-10-05T13:49:26.925Z,4.00
2022-10-05T13:52:45.621Z,4.00
2022-10-05T13:55:56.508Z,4.00
2022-10-05T13:59:17.189Z,3.60
2022-10-05T14:02:24.079Z,5.00
2022-10-05T14:05:29.124Z,4.00
2022-10-05T14:08:35.568Z,4.75
2022-10-05T14:11:48.778Z,5.00
2022-10-05T14:14:55.747Z,4.00
2022-10-05T14:17:59.465Z,4.00
2022-10-05T14:21:15.981Z,4.00
2022-10-05T14:24:42.421Z,4.50
2022-10-05T14:28:02.397Z,5.00
2022-10-05T14:31:15.927Z,5.00
2022-10-05T14:34:36.240Z,6.00
2022-10-05T14:37:45.760Z,5.00
2022-10-05T14:41:04.811Z,5.00
2022-10-05T14:44:30.142Z,4.20
2022-10-05T14:47:35.783Z,5.00
2022-10-05T14:50:56.072Z,4.00
2022-10-05T14:54:01.083Z,6.00
2022-10-05T14:57:16.626Z,5.80
2022-10-05T15:00:20.659Z,4.00
2022-10-05T15:03:46.875Z,6.00
2022-10-05T15:07:00.622Z,5.25
2022-10-05T15:10:29.547Z,6.00
2022-10-05T15:13:37.355Z,6.00
2022-10-05T15:16:41.152Z,5.00
2022-10-05T15:19:59.492Z,6.00
2022-10-05T15:23:23.856Z,6.00
2022-10-05T15:26:40.095Z,5.00
2022-10-05T15:30:05.566Z,6.00
2022-10-05T15:33:16.942Z,6.00
2022-10-05T15:36:26.305Z,7.00
2022-10-05T15:39:38.256Z,7.00
2022-10-05T15:42:43.275Z,7.00
2022-10-05T15:45:58.247Z,8.80
2022-10-05T15:49:12.528Z,6.00
2022-10-05T15:52:26.891Z,6.40
2022-10-05T15:55:48.885Z,6.40
2022-10-05T15:58:56.573Z,13.00
2022-10-05T16:02:04.497Z,6.00
2022-10-05T16:05:47.848Z,8.00
2022-10-05T16:09:04.062Z,6.00
2022-10-05T16:12:19.178Z,8.00
2022-10-05T16:15:29.795Z,9.00
2022-10-05T16:18:49.474Z,8.00
2022-10-05T16:21:59.458Z,7.00
2022-10-05T16:25:10.588Z,8.00
2022-10-05T16:28:24.236Z,8.00
2022-10-05T16:31:38.449Z,7.60
2022-10-05T16:34:54.297Z,9.80
2022-10-05T16:38:14.014Z,7.00
2022-10-05T16:41:28.102Z,7.00
2022-10-05T16:44:41.213Z,10.00
2022-10-05T16:47:51.408Z,9.00
2022-10-05T16:51:24.212Z,9.60
2022-10-05T16:54:32.176Z,11.00
2022-10-05T16:57:40.825Z,11.60
2022-10-05T17:01:00.328Z,11.00
2022-10-05T17:04:20.970Z,7.00
2022-10-05T17:07:44.542Z,12.00
2022-10-05T17:11:01.130Z,11.00
2022-10-05T17:14:27.151Z,10.00
2022-10-05T17:17:58.551Z,11.50
2022-10-05T17:21:12.813Z,8.00
2022-10-05T17:24:30.764Z,12.40
2022-10-05T17:27:36.469Z,10.40
2022-10-05T17:30:53.965Z,11.00
2022-10-05T17:34:27.559Z,11.00
2022-10-05T17:37:37.125Z,10.00
2022-10-05T17:40:40.968Z,11.00
2022-10-05T17:44:19.171Z,12.00
2022-10-05T17:47:56.104Z,12.00
2022-10-05T17:51:17.166Z,12.25
2022-10-05T17:54:40.128Z,13.00
2022-10-05T17:57:43.421Z,12.00
2022-10-05T18:01:07.232Z,11.00
2022-10-05T18:04:42.385Z,13.00
2022-10-05T18:07:48.236Z,13.00
2022-10-05T18:11:17.277Z,13.00
2022-10-05T18:14:24.793Z,13.00
2022-10-05T18:17:41.458Z,11.40
2022-10-05T18:21:12.103Z,10.40
2022-10-05T18:24:29.856Z,12.00
2022-10-05T18:28:06.274Z,11.00
2022-10-05T18:31:22.152Z,11.40
2022-10-05T18:34:32.448Z,11.00
2022-10-05T18:37:49.278Z,10.00
2022-10-05T18:41:01.334Z,10.20
2022-10-05T18:44:21.620Z,11.00
2022-10-05T18:47:34.806Z,12.00
2022-10-05T18:50:48.628Z,12.00
2022-10-05T18:54:07.215Z,10.60
2022-10-05T18:57:36.877Z,11.40
2022-10-05T19:01:04.369Z,12.00
2022-10-05T19:04:22.842Z,13.00
2022-10-05T19:07:38.528Z,11.00
2022-10-05T19:10:46.862Z,13.00
2022-10-05T19:14:01.070Z,13.50
2022-10-05T19:17:18.069Z,15.00
2022-10-05T19:20:28.950Z,13.25
2022-10-05T19:23:53.173Z,11.00
2022-10-05T19:27:09.736Z,13.00
2022-10-05T19:30:21.382Z,13.50
2022-10-05T19:33:33.631Z,14.40
2022-10-05T19:36:50.121Z,12.25
2022-10-05T19:39:59.031Z,13.50
2022-10-05T19:43:25.618Z,13.00
2022-10-05T19:46:53.279Z,16.00
2022-10-05T19:50:19.621Z,13.00
2022-10-05T19:53:29.385Z,13.75
2022-10-05T19:56:35.170Z,13.00
2022-10-05T19:59:46.794Z,12.80
2022-10-05T20:02:51.139Z,14.00
2022-10-05T20:05:56.507Z,13.20
2022-10-05T20:09:03.043Z,13.80
2022-10-05T20:12:06.806Z,14.50
2022-10-05T20:15:37.101Z,13.40
2022-10-05T20:19:05.731Z,14.00
2022-10-05T20:22:25.708Z,13.00
2022-10-05T20:25:33.124Z,14.60
2022-10-05T20:28:36.571Z,14.00
2022-10-05T20:31:41.322Z,14.00
2022-10-05T20:34:46.417Z,12.00
2022-10-05T20:37:50.258Z,12.40
2022-10-05T20:40:53.528Z,11.00
2022-10-05T20:43:56.800Z,12.00
2022-10-05T20:47:01.598Z,10.40
2022-10-05T20:50:05.866Z,9.80
2022-10-05T20:53:11.943Z,12.00
2022-10-05T20:56:15.442Z,12.00
2022-10-05T20:59:19.041Z,11.00
2022-10-05T21:02:23.712Z,11.60
2022-10-05T21:05:27.047Z,11.00
2022-10-05T21:08:30.813Z,12.00
2022-10-05T21:11:34.478Z,10.00
2022-10-05T21:14:38.446Z,12.00
2022-10-05T21:17:43.252Z,10.00
2022-10-05T21:20:50.106Z,12.00
2022-10-05T21:23:54.901Z,13.00
2022-10-05T21:26:58.160Z,10.00
2022-10-05T21:30:01.489Z,12.00
2022-10-05T21:33:06.365Z,12.40
2022-10-05T21:36:09.846Z,11.00
2022-10-05T21:39:13.131Z,12.00
2022-10-05T21:42:16.517Z,11.00
2022-10-05T21:45:19.763Z,9.60
2022-10-05T21:48:26.946Z,11.00
2022-10-05T21:51:30.648Z,9.00
2022-10-05T21:54:35.426Z,11.00
2022-10-05T21:57:39.396Z,9.00
2022-10-05T22:00:42.769Z,8.00
2022-10-05T22:03:47.439Z,11.00
2022-10-05T22:06:51.331Z,10.00
2022-10-05T22:09:54.676Z,11.60
2022-10-05T22:13:01.650Z,10.00
2022-10-05T22:16:05.483Z,7.80
2022-10-05T22:19:15.992Z,11.00
2022-10-05T22:22:19.220Z,9.00
2022-10-05T22:25:23.686Z,9.00
2022-10-05T22:28:27.408Z,8.60
2022-10-05T22:31:31.198Z,9.60
2022-10-05T22:34:36.226Z,8.00
2022-10-05T22:37:39.900Z,8.60
2022-10-05T22:40:43.455Z,8.75
2022-10-05T22:43:50.277Z,8.60
2022-10-05T22:46:53.668Z,10.00
2022-10-05T22:49:58.333Z,9.20
2022-10-05T22:53:01.586Z,8.00
2022-10-05T22:56:06.555Z,8.00
2022-10-05T22:59:09.867Z,9.00
2022-10-05T23:02:14.422Z,8.60
2022-10-05T23:05:19.657Z,8.50
2022-10-05T23:08:23.096Z,8.00
2022-10-05T23:11:28.316Z,8.00
2022-10-05T23:14:32.705Z,10.50
2022-10-05T23:17:38.936Z,9.00
2022-10-05T23:20:43.752Z,9.60
2022-10-05T23:23:50.968Z,10.00
2022-10-05T23:26:54.246Z,9.00
2022-10-05T23:29:57.865Z,8.00
2022-10-05T23:33:01.134Z,8.50
2022-10-05T23:36:09.036Z,7.60
2022-10-05T23:39:13.747Z,9.25
2022-10-05T23:42:16.930Z,9.00
2022-10-05T23:45:20.228Z,9.40
2022-10-05T23:48:23.594Z,8.00
2022-10-05T23:51:28.842Z,5.75
2022-10-05T23:54:32.119Z,7.80
2022-10-05T23:57:35.941Z,8.00
